Main page
METAR-TAF:

METAR-TAF

Airports :

Marshall County Airport

Lacon, Illinois, United States

latitude: 41-01-09N, longitude: 089-23-11W, elevation: 567 ft

Current weather observation

The report was made 24 minutes ago, at 06:15 UTC
Calm wind
Temperature 41°F
Humidity 65%
Pressure 30.15 in. Hg
Visibility: 10 miles
Clear sky

METAR: KC75 220615Z AUTO 00000KT 10SM CLR 05/M01 A3015 RMK AO2 T00471011

Time: 01:39 (06:39 UTC)


TAF: missing

Weather observations and forecasts of more than 4000 airports (METAR and TAF reports).

The available stations are represented by yellow and red dots on the map.

Hover mouse over dot to see the name of the station.

Then click to see weather observations and forecasts.

To change the map : click on the green buttons with a black cross to zoom in, on the green button with a dash to zoom out, or on the green arrows for adjacent maps.


METAR-TAF: